createdAt,value
2023-02-06T00:01:48.104Z,1.61
2023-02-06T00:04:17.817Z,1.68
2023-02-06T00:06:46.884Z,1.72
2023-02-06T00:09:16.226Z,1.77
2023-02-06T00:11:45.681Z,1.81
2023-02-06T00:14:18.912Z,1.85
2023-02-06T00:16:47.453Z,1.89
2023-02-06T00:19:19.530Z,1.95
2023-02-06T00:21:48.912Z,1.97
2023-02-06T00:24:16.983Z,2.02
2023-02-06T00:26:46.494Z,2.04
2023-02-06T00:29:15.161Z,2.09
2023-02-06T00:31:44.095Z,2.15
2023-02-06T00:34:12.305Z,2.19
2023-02-06T00:36:41.121Z,2.23
2023-02-06T00:39:09.612Z,2.29
2023-02-06T00:41:38.487Z,2.34
2023-02-06T00:44:08.088Z,2.37
2023-02-06T00:46:36.362Z,2.40
2023-02-06T00:49:04.606Z,2.45
2023-02-06T00:51:32.730Z,2.46
2023-02-06T00:54:00.997Z,2.46
2023-02-06T00:56:29.054Z,2.54
2023-02-06T00:58:57.098Z,2.54
2023-02-06T01:01:27.168Z,2.61
2023-02-06T01:03:56.314Z,2.63
2023-02-06T01:06:24.345Z,2.66
2023-02-06T01:08:52.509Z,2.67
2023-02-06T01:11:22.859Z,2.75
2023-02-06T01:13:50.938Z,2.76
2023-02-06T01:16:19.948Z,2.77
2023-02-06T01:18:49.742Z,2.76
2023-02-06T01:21:20.316Z,2.84
2023-02-06T01:23:48.811Z,2.89
2023-02-06T01:26:20.483Z,2.91
2023-02-06T01:28:49.781Z,2.92
2023-02-06T01:31:19.192Z,2.94
2023-02-06T01:33:47.904Z,2.99
2023-02-06T01:36:18.010Z,3.01
2023-02-06T01:38:46.497Z,2.99
2023-02-06T01:41:14.918Z,3.02
2023-02-06T01:43:44.444Z,3.01
2023-02-06T01:46:12.990Z,3.07
2023-02-06T01:48:43.296Z,3.10
2023-02-06T01:51:14.559Z,3.15
2023-02-06T01:53:45.809Z,3.18
2023-02-06T01:56:19.542Z,3.21
2023-02-06T01:58:50.124Z,3.27
2023-02-06T02:01:18.975Z,3.32
2023-02-06T02:03:49.364Z,3.35
2023-02-06T02:06:19.400Z,3.37
2023-02-06T02:08:50.193Z,3.39
2023-02-06T02:11:19.718Z,3.43
2023-02-06T02:13:47.986Z,3.46
2023-02-06T02:16:19.501Z,3.46
2023-02-06T02:18:56.570Z,3.49
2023-02-06T02:21:57.499Z,3.47
2023-02-06T02:24:38.782Z,3.50
2023-02-06T02:27:22.299Z,3.46
2023-02-06T02:30:11.798Z,3.52
2023-02-06T02:32:53.046Z,3.52
2023-02-06T02:35:30.038Z,3.49
2023-02-06T02:38:12.069Z,3.51
2023-02-06T02:40:44.991Z,3.52
2023-02-06T02:43:19.603Z,3.56
2023-02-06T02:45:51.504Z,3.58
2023-02-06T02:48:23.760Z,3.61
2023-02-06T02:50:54.234Z,3.62
2023-02-06T02:53:22.573Z,3.64
2023-02-06T02:55:51.013Z,3.67
2023-02-06T02:58:22.564Z,3.71
2023-02-06T03:00:52.699Z,3.73
2023-02-06T03:03:23.000Z,3.74
2023-02-06T03:05:58.871Z,3.77
2023-02-06T03:08:29.846Z,3.77
2023-02-06T03:11:05.104Z,3.82
2023-02-06T03:13:35.696Z,3.84
2023-02-06T03:16:09.241Z,3.86
2023-02-06T03:18:41.351Z,3.89
2023-02-06T03:21:13.794Z,3.92
2023-02-06T03:23:44.537Z,3.91
2023-02-06T03:26:15.053Z,3.93
2023-02-06T03:28:44.618Z,3.92
2023-02-06T03:31:15.465Z,3.91
2023-02-06T03:33:47.278Z,3.92
2023-02-06T03:36:18.555Z,3.93
2023-02-06T03:38:47.226Z,3.94
2023-02-06T03:41:16.405Z,3.94
2023-02-06T03:43:46.930Z,3.93
2023-02-06T03:46:15.862Z,3.93
2023-02-06T03:48:45.991Z,3.93
2023-02-06T03:51:18.797Z,3.99
2023-02-06T03:53:47.658Z,4.00
2023-02-06T03:56:20.662Z,4.04
2023-02-06T03:58:48.877Z,4.06
2023-02-06T04:01:17.768Z,4.09
2023-02-06T04:03:45.909Z,4.13
2023-02-06T04:06:14.082Z,4.20
2023-02-06T04:08:43.946Z,4.24
2023-02-06T04:11:12.137Z,4.26
2023-02-06T04:13:40.291Z,4.29
2023-02-06T04:16:08.340Z,4.32
2023-02-06T04:18:36.437Z,4.35
2023-02-06T04:21:05.089Z,4.33
2023-02-06T04:23:33.323Z,4.33
2023-02-06T04:26:02.849Z,4.35
2023-02-06T04:28:30.865Z,4.42
2023-02-06T04:30:59.052Z,4.45
2023-02-06T04:33:27.444Z,4.46
2023-02-06T04:35:55.545Z,4.45
2023-02-06T04:38:23.895Z,4.47
2023-02-06T04:40:52.222Z,4.48
2023-02-06T04:43:21.680Z,4.48
2023-02-06T04:45:49.714Z,4.49
2023-02-06T04:48:17.832Z,4.51
2023-02-06T04:50:45.925Z,4.52
2023-02-06T04:53:14.174Z,4.52
2023-02-06T04:55:42.581Z,4.52
2023-02-06T04:58:10.764Z,4.55
2023-02-06T05:00:40.290Z,4.53
2023-02-06T05:03:08.375Z,4.55
2023-02-06T05:05:36.657Z,4.55
2023-02-06T05:08:04.944Z,4.52
2023-02-06T05:10:33.175Z,4.54
2023-02-06T05:13:01.378Z,4.53
2023-02-06T05:15:29.512Z,4.58
2023-02-06T05:17:59.212Z,4.60
2023-02-06T05:20:27.252Z,4.59
2023-02-06T05:22:55.371Z,4.58
2023-02-06T05:25:23.465Z,4.60
2023-02-06T05:27:51.998Z,4.59
2023-02-06T05:30:20.475Z,4.63
2023-02-06T05:32:48.614Z,4.59
2023-02-06T05:35:18.747Z,4.60
2023-02-06T05:37:46.862Z,4.62
2023-02-06T05:40:15.605Z,4.62
2023-02-06T05:42:43.718Z,4.59
2023-02-06T05:45:11.776Z,4.61
2023-02-06T05:47:39.921Z,4.53
2023-02-06T05:50:08.070Z,4.56
2023-02-06T05:52:37.654Z,4.53
2023-02-06T05:55:06.298Z,4.55
2023-02-06T05:57:49.559Z,4.49
2023-02-06T06:00:18.363Z,4.46
2023-02-06T06:02:46.497Z,4.44
2023-02-06T06:05:14.800Z,4.47
2023-02-06T06:07:44.262Z,4.47
2023-02-06T06:10:12.534Z,4.48
2023-02-06T06:12:40.598Z,4.49
2023-02-06T06:15:09.193Z,4.45
2023-02-06T06:17:37.359Z,4.50
2023-02-06T06:20:05.693Z,4.50
2023-02-06T06:22:33.754Z,4.54
2023-02-06T06:25:03.870Z,4.58
2023-02-06T06:27:32.133Z,4.58
2023-02-06T06:30:00.348Z,4.61
2023-02-06T06:32:28.441Z,4.63
2023-02-06T06:34:56.595Z,4.63
2023-02-06T06:37:24.655Z,4.67
2023-02-06T06:39:52.764Z,4.70
2023-02-06T06:42:22.377Z,4.74
2023-02-06T06:44:50.720Z,4.78
2023-02-06T06:47:18.803Z,4.81
2023-02-06T06:49:47.014Z,4.83
2023-02-06T06:52:24.475Z,4.80
2023-02-06T06:54:54.109Z,4.81
2023-02-06T06:57:23.497Z,4.85
2023-02-06T06:59:51.727Z,4.82
2023-02-06T07:02:19.923Z,4.90
2023-02-06T07:04:47.989Z,4.88
2023-02-06T07:07:16.321Z,4.88
2023-02-06T07:09:44.400Z,4.86
2023-02-06T07:12:12.537Z,4.88
2023-02-06T07:14:42.439Z,4.86
2023-02-06T07:17:10.547Z,4.85
2023-02-06T07:19:39.282Z,4.89
2023-02-06T07:22:07.247Z,4.93
2023-02-06T07:24:35.385Z,4.92
2023-02-06T07:27:03.470Z,4.95
2023-02-06T07:29:31.495Z,4.94
2023-02-06T07:32:01.197Z,4.96
2023-02-06T07:34:29.334Z,4.98
2023-02-06T07:36:59.783Z,4.97
2023-02-06T07:39:27.971Z,4.97
2023-02-06T07:41:56.025Z,4.92
2023-02-06T07:44:31.198Z,4.84
2023-02-06T07:46:59.344Z,4.85
2023-02-06T07:49:28.835Z,4.81
2023-02-06T07:51:57.030Z,4.75
2023-02-06T07:54:25.295Z,4.75
2023-02-06T07:56:53.659Z,4.67
2023-02-06T07:59:21.934Z,4.64
2023-02-06T08:01:49.960Z,4.60
2023-02-06T08:04:18.069Z,4.53
2023-02-06T08:06:47.592Z,4.56
2023-02-06T08:09:17.539Z,4.55
2023-02-06T08:11:49.149Z,4.49
2023-02-06T08:14:17.335Z,4.52
2023-02-06T08:16:45.660Z,4.52
2023-02-06T08:19:13.850Z,4.53
2023-02-06T08:21:42.282Z,4.56
2023-02-06T08:24:12.505Z,4.57
2023-02-06T08:26:40.851Z,4.59
2023-02-06T08:29:09.460Z,4.63
2023-02-06T08:31:38.854Z,4.70
2023-02-06T08:34:08.065Z,4.74
2023-02-06T08:36:36.248Z,4.75
2023-02-06T08:39:05.300Z,4.81
2023-02-06T08:41:37.158Z,4.83
2023-02-06T08:44:06.408Z,4.89
2023-02-06T08:46:34.986Z,4.95
2023-02-06T08:49:04.934Z,5.01
2023-02-06T08:51:33.704Z,5.01
2023-02-06T08:54:02.688Z,5.05
2023-02-06T08:56:31.466Z,5.07
2023-02-06T08:59:01.505Z,5.07
2023-02-06T09:01:30.645Z,5.08
2023-02-06T09:03:59.747Z,5.08
2023-02-06T09:06:28.171Z,5.12
2023-02-06T09:08:58.084Z,5.09
2023-02-06T09:11:26.986Z,5.10
2023-02-06T09:13:56.029Z,5.09
2023-02-06T09:16:26.248Z,5.12
2023-02-06T09:18:54.882Z,5.16
2023-02-06T09:21:24.266Z,5.23
2023-02-06T09:23:53.481Z,5.33
2023-02-06T09:26:23.304Z,5.46
2023-02-06T09:28:52.793Z,5.54
2023-02-06T09:31:21.007Z,5.65
2023-02-06T09:33:51.605Z,5.64
2023-02-06T09:36:20.629Z,5.71
2023-02-06T09:38:49.844Z,5.68
2023-02-06T09:41:20.227Z,5.74
2023-02-06T09:43:50.949Z,5.71
2023-02-06T09:46:23.843Z,5.72
2023-02-06T09:48:53.813Z,5.70
2023-02-06T09:51:27.438Z,5.75
2023-02-06T09:54:05.674Z,5.78
2023-02-06T09:56:37.926Z,5.84
2023-02-06T09:59:13.379Z,5.91
2023-02-06T10:01:46.072Z,6.04
2023-02-06T10:04:34.670Z,6.28
2023-02-06T10:07:09.600Z,6.76
2023-02-06T10:09:40.887Z,7.41
2023-02-06T10:12:14.086Z,8.01
2023-02-06T10:14:45.766Z,8.56
2023-02-06T10:17:17.015Z,9.00
2023-02-06T10:19:51.717Z,9.49
2023-02-06T10:22:22.238Z,9.69
2023-02-06T10:24:55.403Z,10.01
2023-02-06T10:27:23.641Z,10.25
2023-02-06T10:29:51.714Z,10.28
2023-02-06T10:32:30.705Z,10.39
2023-02-06T10:35:07.385Z,10.31
2023-02-06T10:37:47.900Z,10.15
2023-02-06T10:40:21.746Z,9.89
2023-02-06T10:42:55.014Z,9.84
2023-02-06T10:45:31.543Z,9.55
2023-02-06T10:48:02.906Z,9.43
2023-02-06T10:50:34.717Z,9.23
2023-02-06T10:53:06.019Z,9.22
2023-02-06T10:55:39.111Z,9.14
2023-02-06T10:58:14.419Z,9.13
2023-02-06T11:00:44.771Z,9.10
2023-02-06T11:03:15.651Z,9.15
2023-02-06T11:05:45.160Z,9.26
2023-02-06T11:08:18.211Z,9.59
2023-02-06T11:10:46.664Z,10.20
2023-02-06T11:13:16.378Z,10.78
2023-02-06T11:15:49.111Z,11.51
2023-02-06T11:18:19.940Z,12.14
2023-02-06T11:20:50.459Z,12.58
2023-02-06T11:23:19.691Z,13.03
2023-02-06T11:25:50.489Z,13.14
2023-02-06T11:28:20.083Z,13.73
2023-02-06T11:30:55.713Z,14.05
2023-02-06T11:33:26.698Z,14.38
2023-02-06T11:35:59.162Z,14.89
2023-02-06T11:38:29.588Z,15.32
2023-02-06T11:41:00.865Z,15.37
2023-02-06T11:43:31.297Z,15.02
2023-02-06T11:46:07.612Z,15.11
2023-02-06T11:48:40.000Z,15.07
2023-02-06T11:51:10.064Z,15.04
2023-02-06T11:53:38.930Z,14.73
2023-02-06T11:56:16.325Z,13.87
2023-02-06T11:58:44.881Z,13.42
2023-02-06T12:01:19.335Z,12.88
2023-02-06T12:03:55.569Z,12.31
2023-02-06T12:06:29.121Z,12.06
2023-02-06T12:08:58.677Z,11.84
2023-02-06T12:11:29.561Z,11.64
2023-02-06T12:14:00.688Z,11.69
2023-02-06T12:16:29.008Z,11.53
2023-02-06T12:18:59.022Z,11.74
2023-02-06T12:21:31.763Z,11.99
2023-02-06T12:24:02.833Z,11.63
2023-02-06T12:26:33.544Z,11.73
2023-02-06T12:29:03.636Z,11.78
2023-02-06T12:31:37.867Z,12.20
2023-02-06T12:34:11.827Z,12.27
2023-02-06T12:36:51.501Z,12.62
2023-02-06T12:39:20.929Z,12.36
2023-02-06T12:42:02.055Z,12.37
2023-02-06T12:44:33.785Z,12.04
2023-02-06T12:47:07.096Z,11.65
2023-02-06T12:49:38.066Z,11.07
2023-02-06T12:52:12.343Z,10.77
2023-02-06T12:54:43.735Z,10.89
2023-02-06T12:57:15.755Z,10.55
2023-02-06T12:59:57.988Z,10.60
2023-02-06T13:02:39.908Z,10.59
2023-02-06T13:05:17.116Z,10.41
2023-02-06T13:07:49.987Z,10.25
2023-02-06T13:10:20.090Z,10.15
2023-02-06T13:12:54.495Z,10.13
2023-02-06T13:15:23.842Z,9.97
2023-02-06T13:17:52.701Z,10.03
2023-02-06T13:20:21.943Z,9.89
2023-02-06T13:22:52.180Z,9.76
2023-02-06T13:25:54.298Z,9.62
2023-02-06T13:28:40.441Z,9.46
2023-02-06T13:31:21.740Z,9.36
2023-02-06T13:33:52.304Z,9.21
2023-02-06T13:36:26.169Z,9.23
2023-02-06T13:38:57.552Z,9.20
2023-02-06T13:41:30.454Z,9.10
2023-02-06T13:44:00.468Z,9.23
2023-02-06T13:46:39.187Z,9.33
2023-02-06T13:49:19.896Z,9.34
2023-02-06T13:51:50.528Z,9.48
2023-02-06T13:54:27.290Z,9.59
2023-02-06T13:57:05.971Z,9.74
2023-02-06T13:59:36.246Z,9.68
2023-02-06T14:02:05.631Z,9.78
2023-02-06T14:04:34.663Z,9.78
2023-02-06T14:07:10.742Z,9.79
2023-02-06T14:09:47.793Z,9.77
2023-02-06T14:12:34.372Z,9.93
2023-02-06T14:15:15.677Z,9.89
2023-02-06T14:17:51.784Z,9.95
2023-02-06T14:20:28.725Z,9.93
2023-02-06T14:22:59.862Z,9.85
2023-02-06T14:25:39.260Z,9.76
2023-02-06T14:28:15.379Z,9.68
2023-02-06T14:30:48.321Z,9.70
2023-02-06T14:33:43.397Z,9.48
2023-02-06T14:36:17.161Z,9.54
2023-02-06T14:38:53.923Z,9.43
2023-02-06T14:41:23.827Z,9.37
2023-02-06T14:43:53.409Z,9.34
2023-02-06T14:46:24.354Z,9.39
2023-02-06T14:48:54.921Z,9.33
2023-02-06T14:51:25.108Z,9.32
2023-02-06T14:53:55.591Z,9.18
2023-02-06T14:56:29.338Z,9.06
2023-02-06T14:58:57.707Z,9.10
2023-02-06T15:01:27.866Z,9.05
2023-02-06T15:04:09.483Z,8.95
2023-02-06T15:06:39.450Z,9.01
2023-02-06T15:09:08.143Z,8.97
2023-02-06T15:11:37.847Z,8.96
2023-02-06T15:14:06.788Z,8.99
2023-02-06T15:16:46.351Z,9.00
2023-02-06T15:19:18.189Z,9.02
2023-02-06T15:21:46.625Z,9.22
2023-02-06T15:24:23.542Z,9.19
2023-02-06T15:26:57.945Z,9.23
2023-02-06T15:29:27.842Z,9.26
2023-02-06T15:31:57.423Z,9.21
2023-02-06T15:34:26.479Z,9.26
2023-02-06T15:36:55.023Z,9.18
2023-02-06T15:39:23.279Z,9.13
2023-02-06T15:41:52.664Z,9.15
2023-02-06T15:44:24.865Z,9.15
2023-02-06T15:46:54.012Z,9.03
2023-02-06T15:49:35.081Z,9.06
2023-02-06T15:52:03.614Z,8.95
2023-02-06T15:54:31.796Z,8.94
2023-02-06T15:57:03.167Z,8.89
2023-02-06T15:59:34.331Z,8.75
2023-02-06T16:02:03.906Z,8.65
2023-02-06T16:04:33.835Z,8.60
2023-02-06T16:07:05.673Z,8.47
2023-02-06T16:09:39.570Z,8.37
2023-02-06T16:12:08.347Z,8.32
2023-02-06T16:14:39.305Z,8.25
2023-02-06T16:17:23.189Z,8.23
2023-02-06T16:19:54.415Z,8.15
2023-02-06T16:22:26.776Z,8.20
2023-02-06T16:24:56.017Z,8.21
2023-02-06T16:27:25.691Z,8.14
2023-02-06T16:29:57.144Z,8.12
2023-02-06T16:32:26.707Z,8.05
2023-02-06T16:34:55.604Z,8.03
2023-02-06T16:37:24.657Z,8.01
2023-02-06T16:39:52.754Z,8.00
2023-02-06T16:42:22.993Z,7.96
2023-02-06T16:44:59.558Z,7.85
2023-02-06T16:47:28.203Z,7.79
2023-02-06T16:49:56.293Z,7.77
2023-02-06T16:52:26.899Z,7.77
2023-02-06T16:54:57.916Z,7.71
2023-02-06T16:57:29.385Z,7.68
2023-02-06T16:59:59.385Z,7.65
2023-02-06T17:02:28.212Z,7.62
2023-02-06T17:04:56.803Z,7.61
2023-02-06T17:07:26.713Z,7.58
2023-02-06T17:09:55.722Z,7.57
2023-02-06T17:12:24.226Z,7.56
2023-02-06T17:14:52.462Z,7.56
2023-02-06T17:17:22.714Z,7.51
2023-02-06T17:19:51.959Z,7.52
2023-02-06T17:22:22.064Z,7.47
2023-02-06T17:24:50.497Z,7.42
2023-02-06T17:27:21.021Z,7.43
2023-02-06T17:29:49.519Z,7.38
2023-02-06T17:32:22.187Z,7.34
2023-02-06T17:34:54.366Z,7.30
2023-02-06T17:37:22.548Z,7.26
2023-02-06T17:39:51.526Z,7.18
2023-02-06T17:42:19.967Z,7.13
2023-02-06T17:44:48.053Z,7.14
2023-02-06T17:47:16.167Z,7.12
2023-02-06T17:49:44.922Z,7.06
2023-02-06T17:52:14.499Z,7.03
2023-02-06T17:54:42.620Z,7.03
2023-02-06T17:57:11.006Z,6.98
2023-02-06T17:59:39.220Z,7.00
2023-02-06T18:02:08.120Z,7.00
2023-02-06T18:04:36.222Z,6.99
2023-02-06T18:07:04.594Z,6.97
2023-02-06T18:09:34.257Z,6.94
2023-02-06T18:12:02.546Z,6.89
2023-02-06T18:14:30.861Z,6.88
2023-02-06T18:16:58.960Z,6.84
2023-02-06T18:19:27.092Z,6.79
2023-02-06T18:21:55.190Z,6.71
2023-02-06T18:24:23.582Z,6.68
2023-02-06T18:26:53.347Z,6.54
2023-02-06T18:29:21.324Z,6.51
2023-02-06T18:31:52.274Z,6.42
2023-02-06T18:34:28.435Z,6.36
2023-02-06T18:37:02.564Z,6.29
2023-02-06T18:39:32.329Z,6.23
2023-02-06T18:42:19.551Z,6.19
2023-02-06T18:44:47.794Z,6.13
2023-02-06T18:47:17.046Z,6.09
2023-02-06T18:49:45.124Z,6.07
2023-02-06T18:52:13.446Z,6.01
2023-02-06T18:54:42.480Z,5.99
2023-02-06T18:57:11.871Z,5.91
2023-02-06T18:59:40.153Z,5.85
2023-02-06T19:02:10.178Z,5.86
2023-02-06T19:04:40.512Z,5.83
2023-02-06T19:07:09.101Z,5.80
2023-02-06T19:09:37.162Z,5.78
2023-02-06T19:12:06.194Z,5.72
2023-02-06T19:14:36.660Z,5.69
2023-02-06T19:17:04.769Z,5.69
2023-02-06T19:19:33.692Z,5.65
2023-02-06T19:22:02.476Z,5.59
2023-02-06T19:24:33.569Z,5.57
2023-02-06T19:27:02.923Z,5.56
2023-02-06T19:29:36.530Z,5.54
2023-02-06T19:32:09.541Z,5.54
2023-02-06T19:34:39.943Z,5.56
2023-02-06T19:37:11.591Z,5.54
2023-02-06T19:39:44.108Z,5.53
2023-02-06T19:42:19.526Z,5.48
2023-02-06T19:44:56.097Z,5.48
2023-02-06T19:47:31.576Z,5.45
2023-02-06T19:50:06.008Z,5.43
2023-02-06T19:52:38.615Z,5.41
2023-02-06T19:55:10.493Z,5.39
2023-02-06T19:57:42.996Z,5.38
2023-02-06T20:00:14.942Z,5.38
2023-02-06T20:02:49.577Z,5.32
2023-02-06T20:05:25.944Z,5.29
2023-02-06T20:07:59.199Z,5.29
2023-02-06T20:10:31.704Z,5.29
2023-02-06T20:13:00.883Z,5.27
2023-02-06T20:15:32.051Z,5.26
2023-02-06T20:18:01.716Z,5.26
2023-02-06T20:20:32.351Z,5.25
2023-02-06T20:23:03.060Z,5.26
2023-02-06T20:25:33.134Z,5.18
2023-02-06T20:28:03.912Z,5.18
2023-02-06T20:30:35.702Z,5.17
2023-02-06T20:33:08.233Z,5.11
2023-02-06T20:35:40.220Z,5.10
2023-02-06T20:38:11.847Z,5.06
2023-02-06T20:40:44.230Z,5.07
2023-02-06T20:43:13.979Z,5.01
2023-02-06T20:45:42.057Z,4.95
2023-02-06T20:48:15.015Z,4.98
2023-02-06T20:50:43.141Z,4.91
2023-02-06T20:53:12.154Z,4.91
2023-02-06T20:55:42.299Z,4.91
2023-02-06T20:58:14.034Z,4.88
2023-02-06T21:00:44.422Z,4.84
2023-02-06T21:03:16.672Z,4.81
2023-02-06T21:05:48.008Z,4.79
2023-02-06T21:08:16.263Z,4.78
2023-02-06T21:10:46.567Z,4.77
2023-02-06T21:13:16.559Z,4.70
2023-02-06T21:15:52.993Z,4.67
2023-02-06T21:18:23.445Z,4.64
2023-02-06T21:20:55.618Z,4.58
2023-02-06T21:23:28.389Z,4.63
2023-02-06T21:26:02.066Z,4.59
2023-02-06T21:28:31.943Z,4.58
2023-02-06T21:31:01.437Z,4.55
2023-02-06T21:33:30.928Z,4.50
2023-02-06T21:35:59.452Z,4.50
2023-02-06T21:38:27.713Z,4.48
2023-02-06T21:40:55.789Z,4.46
2023-02-06T21:43:24.248Z,4.40
2023-02-06T21:45:52.349Z,4.38
2023-02-06T21:48:20.463Z,4.31
2023-02-06T21:50:49.981Z,4.26
2023-02-06T21:53:18.110Z,4.19
2023-02-06T21:55:47.129Z,4.17
2023-02-06T21:58:15.787Z,4.11
2023-02-06T22:00:44.951Z,4.05
2023-02-06T22:03:13.868Z,4.01
2023-02-06T22:05:42.024Z,3.96
2023-02-06T22:08:11.872Z,3.95
2023-02-06T22:10:40.204Z,3.91
2023-02-06T22:13:08.343Z,3.85
2023-02-06T22:15:36.995Z,3.87
2023-02-06T22:18:05.450Z,3.79
2023-02-06T22:20:33.498Z,3.84
2023-02-06T22:23:01.593Z,3.78
2023-02-06T22:25:31.954Z,3.76
2023-02-06T22:28:00.157Z,3.79
2023-02-06T22:30:28.387Z,3.76
2023-02-06T22:32:56.622Z,3.78
2023-02-06T22:35:25.529Z,3.77
2023-02-06T22:37:53.732Z,3.76
2023-02-06T22:40:22.013Z,3.77
2023-02-06T22:42:51.614Z,3.76
2023-02-06T22:45:19.875Z,3.75
2023-02-06T22:47:48.054Z,3.77
2023-02-06T22:50:16.748Z,3.73
2023-02-06T22:53:03.104Z,3.75
2023-02-06T22:55:52.269Z,3.74
2023-02-06T22:58:22.232Z,3.74
2023-02-06T23:00:50.513Z,3.74
2023-02-06T23:03:18.913Z,3.75
2023-02-06T23:05:47.214Z,3.72
2023-02-06T23:08:16.090Z,3.74
2023-02-06T23:10:47.559Z,3.75
2023-02-06T23:13:15.800Z,3.78
2023-02-06T23:15:45.329Z,3.79
2023-02-06T23:18:13.654Z,3.79
2023-02-06T23:20:42.388Z,3.82
2023-02-06T23:23:10.590Z,3.80
2023-02-06T23:25:44.066Z,3.85
2023-02-06T23:28:12.489Z,3.87
2023-02-06T23:30:40.965Z,3.87
2023-02-06T23:33:10.660Z,3.91
2023-02-06T23:35:39.333Z,3.86
2023-02-06T23:38:08.661Z,3.92
2023-02-06T23:40:37.871Z,3.92
2023-02-06T23:43:06.838Z,3.91
2023-02-06T23:45:35.176Z,3.91
2023-02-06T23:48:03.856Z,3.95
2023-02-06T23:50:33.706Z,3.97
2023-02-06T23:53:02.081Z,3.98
2023-02-06T23:55:30.736Z,4.03
2023-02-06T23:57:59.110Z,4.06
